This is the latest recevied weather packets stored in our database for station/object N2WH. If no packets are shown the sender has not sent any weather packets the latest 10 day(s).
| Time | Temp. | Humidity | Pressure | Rain* | Wind** | Luminosity | Snow |
|---|---|---|---|---|---|---|---|
| 1777919762 | 22.78° C | 35% | 1011.1 hPa | 0 mm | - | 659 W/m² | - |
| 1777919459 | 22.78° C | 33% | 1011.1 hPa | 0 mm | - | 677 W/m² | - |
| 1777919156 | 22.22° C | 34% | 1011.3 hPa | 0 mm | - | 699 W/m² | - |
| 1777918854 | 22.78° C | 34% | 1011.5 hPa | 0 mm | - | 664 W/m² | - |
| 1777918550 | 23.33° C | 35% | 1011.5 hPa | 0 mm | - | 583 W/m² | - |
| 1777918249 | 22.78° C | 34% | 1011.3 hPa | 0 mm | - | 520 W/m² | - |
| 1777917947 | 21.67° C | 35% | 1011.7 hPa | 0 mm | - | 532 W/m² | - |
| 1777917646 | 22.22° C | 36% | 1011.6 hPa | 0 mm | - | 633 W/m² | - |
| 1777917343 | 22.78° C | 36% | 1011.7 hPa | 0 mm | - | 696 W/m² | - |
| 1777917039 | 22.78° C | 34% | 1011.6 hPa | 0 mm | - | 689 W/m² | - |
| 1777916738 | 22.78° C | 35% | 1011.7 hPa | 0 mm | - | 637 W/m² | - |
| 1777916434 | 21.67° C | 36% | 1011.8 hPa | 0 mm | - | 665 W/m² | - |
| 1777916131 | 21.67° C | 35% | 1012 hPa | 0 mm | - | 668 W/m² | - |
| 1777915828 | 21.67° C | 36% | 1011.9 hPa | 0 mm | - | 673 W/m² | - |
| 1777915524 | 21.67° C | 37% | 1011.9 hPa | 0 mm | - | 685 W/m² | - |
| 1777915221 | 21.11° C | 38% | 1012.2 hPa | 0 mm | - | 713 W/m² | - |
| 1777914918 | 21.67° C | 35% | 1012.1 hPa | 0 mm | - | 725 W/m² | - |
| 1777914615 | 21.67° C | 35% | 1012.1 hPa | 0 mm | - | 711 W/m² | - |
| 1777914310 | 20.56° C | 37% | 1012.4 hPa | 0 mm | - | 718 W/m² | - |
| 1777914009 | 21.11° C | 35% | 1012.3 hPa | 0 mm | - | 730 W/m² | - |
| 1777913704 | 21.11° C | 38% | 1012.3 hPa | 0 mm | - | 734 W/m² | - |
| 1777913401 | 20.56° C | 36% | 1012.5 hPa | 0 mm | - | 732 W/m² | - |
| 1777913098 | 20.56° C | 37% | 1012.5 hPa | 0 mm | - | 691 W/m² | - |
| 1777912794 | 20.56° C | 40% | 1012.5 hPa | 0 mm | - | 714 W/m² | - |
| 1777912490 | 20.56° C | 36% | 1012.6 hPa | 0 mm | - | 704 W/m² | - |
* Rain latest hour (hover to see other rain measurements)
** Current wind speed in m/s (hover to see current wind gust speed)